Bookmark and Share
Track history (hours):
 

Kyokuho Maru No.15

Last reported at 2014-Apr-20 23:33 UTC. Time now 2014-Apr-20 23:44 UTC.
Position N 34°40' E 135°17'.

Length 63 m; draft 3.1 m.

Type: Tanker. MMSI: 431301714.

NotesDate/timePositionNaut miles runAvg speedWind from/ knotsBaromVisibWave heightAir tempDewpointWater temp
2014-Apr-20 23:33N 34°40' E 135°17'0 0.0
2014-Apr-20 22:33N 34°40' E 135°17'1 0.7
2014-Apr-20 21:33N 34°39' E 135°18'1 0.7
2014-Apr-20 20:28N 34°39' E 135°19'0 0.0
2014-Apr-20 19:28N 34°39' E 135°19'0 0.0
2014-Apr-20 18:28N 34°39' E 135°19'0 0.0
2014-Apr-20 17:22N 34°39' E 135°19'0 0.0
2014-Apr-20 16:22N 34°39' E 135°19'0 0.0
2014-Apr-20 15:22N 34°39' E 135°19'0 0.0
2014-Apr-20 14:28N 34°39' E 135°19'0 0.0
2014-Apr-20 13:28N 34°39' E 135°19'0 0.0
2014-Apr-20 12:28N 34°39' E 135°19'6 6.3
2014-Apr-20 11:33N 34°37' E 135°13'1211.6
2014-Apr-20 10:30N 34°36' E 134°58'  
2014-Apr-15 05:31N 34°37' E 134°60'19 9.8
2014-Apr-15 03:33N 34°33' E 135°22'2 2.1
2014-Apr-15 02:30N 34°32' E 135°25'0 0.0
2014-Apr-15 01:34N 34°32' E 135°25'0 0.1
2014-Apr-14 22:33N 34°31' E 135°24'0 0.1
2014-Apr-14 21:33N 34°31' E 135°24'4 3.9
2014-Apr-14 20:33N 34°33' E 135°20'1212.5
2014-Apr-14 19:34N 34°35' E 135°05'  

Dump ship's entire track history

sailing weather and tide predictions

Kyokuho Maru No.15 — JI3715 — position and weather